sensor_id;sensor_type;location;lat;lon;timestamp;P1;durP1;ratioP1;P2;durP2;ratioP2
65658;SDS011;60181;53.258;6.932;2022-12-11T00:01:49;19.30;;;7.60;;
65658;SDS011;60181;53.258;6.932;2022-12-11T00:06:19;20.00;;;7.50;;
65658;SDS011;60181;53.258;6.932;2022-12-11T00:10:46;20.00;;;7.50;;
65658;SDS011;60181;53.258;6.932;2022-12-11T00:15:13;17.10;;;7.00;;
65658;SDS011;60181;53.258;6.932;2022-12-11T00:19:41;17.10;;;7.00;;
65658;SDS011;60181;53.258;6.932;2022-12-11T00:24:09;17.90;;;7.20;;
65658;SDS011;60181;53.258;6.932;2022-12-11T00:28:37;17.90;;;7.20;;
65658;SDS011;60181;53.258;6.932;2022-12-11T00:33:05;17.70;;;7.40;;
65658;SDS011;60181;53.258;6.932;2022-12-11T00:37:33;17.70;;;7.40;;
65658;SDS011;60181;53.258;6.932;2022-12-11T00:42:01;17.70;;;7.40;;
65658;SDS011;60181;53.258;6.932;2022-12-11T00:46:29;18.40;;;7.50;;
65658;SDS011;60181;53.258;6.932;2022-12-11T00:50:57;18.40;;;7.50;;
65658;SDS011;60181;53.258;6.932;2022-12-11T00:55:25;17.90;;;7.10;;
65658;SDS011;60181;53.258;6.932;2022-12-11T00:59:53;17.90;;;7.10;;
65658;SDS011;60181;53.258;6.932;2022-12-11T01:04:21;17.80;;;7.20;;
65658;SDS011;60181;53.258;6.932;2022-12-11T01:08:49;17.80;;;7.20;;
65658;SDS011;60181;53.258;6.932;2022-12-11T01:13:17;18.60;;;7.30;;
65658;SDS011;60181;53.258;6.932;2022-12-11T01:17:45;18.60;;;7.30;;
65658;SDS011;60181;53.258;6.932;2022-12-11T01:22:13;16.60;;;6.50;;
65658;SDS011;60181;53.258;6.932;2022-12-11T01:26:41;16.60;;;6.50;;
65658;SDS011;60181;53.258;6.932;2022-12-11T01:31:13;16.60;;;6.50;;
65658;SDS011;60181;53.258;6.932;2022-12-11T01:35:38;20.10;;;6.80;;
65658;SDS011;60181;53.258;6.932;2022-12-11T01:40:06;20.10;;;6.80;;
65658;SDS011;60181;53.258;6.932;2022-12-11T01:49:03;20.40;;;7.00;;
65658;SDS011;60181;53.258;6.932;2022-12-11T01:53:33;19.50;;;8.20;;
65658;SDS011;60181;53.258;6.932;2022-12-11T01:57:57;19.50;;;8.20;;
65658;SDS011;60181;53.258;6.932;2022-12-11T02:02:26;20.30;;;8.30;;
65658;SDS011;60181;53.258;6.932;2022-12-11T02:06:53;20.30;;;8.30;;
65658;SDS011;60181;53.258;6.932;2022-12-11T02:11:22;20.30;;;8.30;;
65658;SDS011;60181;53.258;6.932;2022-12-11T02:15:57;18.90;;;8.30;;
65658;SDS011;60181;53.258;6.932;2022-12-11T02:24:56;18.30;;;8.10;;
65658;SDS011;60181;53.258;6.932;2022-12-11T02:29:29;18.30;;;8.10;;
65658;SDS011;60181;53.258;6.932;2022-12-11T02:33:47;19.40;;;7.90;;
65658;SDS011;60181;53.258;6.932;2022-12-11T02:38:11;19.40;;;7.90;;
65658;SDS011;60181;53.258;6.932;2022-12-11T02:42:38;18.90;;;8.10;;
65658;SDS011;60181;53.258;6.932;2022-12-11T02:47:06;18.90;;;8.10;;
65658;SDS011;60181;53.258;6.932;2022-12-11T02:51:35;18.90;;;8.10;;
65658;SDS011;60181;53.258;6.932;2022-12-11T02:56:09;18.50;;;7.70;;
65658;SDS011;60181;53.258;6.932;2022-12-11T03:00:30;18.50;;;7.70;;
65658;SDS011;60181;53.258;6.932;2022-12-11T03:04:58;20.50;;;7.70;;
65658;SDS011;60181;53.258;6.932;2022-12-11T03:09:26;20.50;;;7.70;;
65658;SDS011;60181;53.258;6.932;2022-12-11T03:13:53;21.40;;;7.50;;
65658;SDS011;60181;53.258;6.932;2022-12-11T03:23:03;18.00;;;7.20;;
65658;SDS011;60181;53.258;6.932;2022-12-11T03:27:18;18.00;;;7.20;;
65658;SDS011;60181;53.258;6.932;2022-12-11T03:31:55;18.00;;;7.20;;
65658;SDS011;60181;53.258;6.932;2022-12-11T03:36:15;17.20;;;7.20;;
65658;SDS011;60181;53.258;6.932;2022-12-11T03:40:42;17.20;;;7.20;;
65658;SDS011;60181;53.258;6.932;2022-12-11T03:45:09;16.50;;;6.50;;
65658;SDS011;60181;53.258;6.932;2022-12-11T03:49:38;16.50;;;6.50;;
65658;SDS011;60181;53.258;6.932;2022-12-11T03:54:05;16.60;;;6.60;;
65658;SDS011;60181;53.258;6.932;2022-12-11T03:58:33;16.60;;;6.60;;
65658;SDS011;60181;53.258;6.932;2022-12-11T04:03:01;18.00;;;6.90;;
65658;SDS011;60181;53.258;6.932;2022-12-11T04:07:29;18.00;;;6.90;;
65658;SDS011;60181;53.258;6.932;2022-12-11T04:11:57;18.00;;;6.90;;
65658;SDS011;60181;53.258;6.932;2022-12-11T04:16:25;16.60;;;6.50;;
65658;SDS011;60181;53.258;6.932;2022-12-11T04:20:53;16.60;;;6.50;;
65658;SDS011;60181;53.258;6.932;2022-12-11T04:25:21;15.10;;;6.20;;
65658;SDS011;60181;53.258;6.932;2022-12-11T04:29:49;15.10;;;6.20;;
65658;SDS011;60181;53.258;6.932;2022-12-11T04:34:17;17.00;;;6.30;;
65658;SDS011;60181;53.258;6.932;2022-12-11T04:38:45;17.00;;;6.30;;
65658;SDS011;60181;53.258;6.932;2022-12-11T04:43:13;14.90;;;6.10;;
65658;SDS011;60181;53.258;6.932;2022-12-11T04:47:41;14.90;;;6.10;;
65658;SDS011;60181;53.258;6.932;2022-12-11T04:52:09;14.60;;;5.90;;
65658;SDS011;60181;53.258;6.932;2022-12-11T04:56:37;14.60;;;5.90;;
65658;SDS011;60181;53.258;6.932;2022-12-11T05:01:09;14.60;;;5.90;;
65658;SDS011;60181;53.258;6.932;2022-12-11T05:05:33;14.80;;;5.90;;
65658;SDS011;60181;53.258;6.932;2022-12-11T05:10:01;14.80;;;5.90;;
65658;SDS011;60181;53.258;6.932;2022-12-11T05:14:29;16.60;;;6.00;;
65658;SDS011;60181;53.258;6.932;2022-12-11T05:18:57;16.60;;;6.00;;
65658;SDS011;60181;53.258;6.932;2022-12-11T05:23:25;15.40;;;6.00;;
65658;SDS011;60181;53.258;6.932;2022-12-11T05:27:53;15.40;;;6.00;;
65658;SDS011;60181;53.258;6.932;2022-12-11T05:32:21;13.40;;;5.50;;
65658;SDS011;60181;53.258;6.932;2022-12-11T05:36:49;13.40;;;5.50;;
65658;SDS011;60181;53.258;6.932;2022-12-11T05:41:18;13.40;;;5.50;;
65658;SDS011;60181;53.258;6.932;2022-12-11T05:45:45;15.80;;;6.00;;
65658;SDS011;60181;53.258;6.932;2022-12-11T05:50:13;15.80;;;6.00;;
65658;SDS011;60181;53.258;6.932;2022-12-11T05:54:41;15.40;;;5.60;;
65658;SDS011;60181;53.258;6.932;2022-12-11T05:59:09;15.40;;;5.60;;
65658;SDS011;60181;53.258;6.932;2022-12-11T06:03:37;13.80;;;5.40;;
65658;SDS011;60181;53.258;6.932;2022-12-11T06:08:05;13.80;;;5.40;;
65658;SDS011;60181;53.258;6.932;2022-12-11T06:12:33;16.00;;;5.60;;
65658;SDS011;60181;53.258;6.932;2022-12-11T06:17:01;16.00;;;5.60;;
65658;SDS011;60181;53.258;6.932;2022-12-11T06:21:30;16.00;;;5.60;;
65658;SDS011;60181;53.258;6.932;2022-12-11T06:25:57;14.30;;;5.50;;
65658;SDS011;60181;53.258;6.932;2022-12-11T06:30:25;14.30;;;5.50;;
65658;SDS011;60181;53.258;6.932;2022-12-11T06:34:53;13.50;;;5.20;;
65658;SDS011;60181;53.258;6.932;2022-12-11T06:39:21;13.50;;;5.20;;
65658;SDS011;60181;53.258;6.932;2022-12-11T06:43:49;13.40;;;5.40;;
65658;SDS011;60181;53.258;6.932;2022-12-11T06:48:17;13.40;;;5.40;;
65658;SDS011;60181;53.258;6.932;2022-12-11T06:52:45;15.90;;;5.70;;
65658;SDS011;60181;53.258;6.932;2022-12-11T06:57:13;15.90;;;5.70;;
65658;SDS011;60181;53.258;6.932;2022-12-11T07:01:41;15.90;;;5.70;;
65658;SDS011;60181;53.258;6.932;2022-12-11T07:06:09;14.20;;;5.70;;
65658;SDS011;60181;53.258;6.932;2022-12-11T07:10:37;14.20;;;5.70;;
65658;SDS011;60181;53.258;6.932;2022-12-11T07:15:05;14.90;;;5.60;;
65658;SDS011;60181;53.258;6.932;2022-12-11T07:19:33;14.90;;;5.60;;
65658;SDS011;60181;53.258;6.932;2022-12-11T07:24:01;16.90;;;5.50;;
65658;SDS011;60181;53.258;6.932;2022-12-11T07:28:29;16.90;;;5.50;;
65658;SDS011;60181;53.258;6.932;2022-12-11T07:32:57;17.60;;;5.70;;
65658;SDS011;60181;53.258;6.932;2022-12-11T07:37:25;17.60;;;5.70;;
65658;SDS011;60181;53.258;6.932;2022-12-11T07:41:53;17.60;;;5.70;;
65658;SDS011;60181;53.258;6.932;2022-12-11T07:46:22;15.20;;;5.80;;
65658;SDS011;60181;53.258;6.932;2022-12-11T07:50:49;15.20;;;5.80;;
65658;SDS011;60181;53.258;6.932;2022-12-11T07:55:17;15.60;;;6.00;;
65658;SDS011;60181;53.258;6.932;2022-12-11T07:59:45;15.60;;;6.00;;
65658;SDS011;60181;53.258;6.932;2022-12-11T08:04:13;17.50;;;6.60;;
65658;SDS011;60181;53.258;6.932;2022-12-11T08:08:41;17.50;;;6.60;;
65658;SDS011;60181;53.258;6.932;2022-12-11T08:13:09;19.50;;;7.30;;
65658;SDS011;60181;53.258;6.932;2022-12-11T08:17:37;19.50;;;7.30;;
65658;SDS011;60181;53.258;6.932;2022-12-11T08:22:05;19.50;;;7.30;;
65658;SDS011;60181;53.258;6.932;2022-12-11T08:26:33;17.00;;;6.70;;
65658;SDS011;60181;53.258;6.932;2022-12-11T08:31:04;17.00;;;6.70;;
65658;SDS011;60181;53.258;6.932;2022-12-11T08:35:29;19.80;;;7.30;;
65658;SDS011;60181;53.258;6.932;2022-12-11T08:39:57;19.80;;;7.30;;
65658;SDS011;60181;53.258;6.932;2022-12-11T08:44:25;19.50;;;7.40;;
65658;SDS011;60181;53.258;6.932;2022-12-11T08:48:53;19.50;;;7.40;;
65658;SDS011;60181;53.258;6.932;2022-12-11T08:53:21;19.30;;;6.80;;
65658;SDS011;60181;53.258;6.932;2022-12-11T08:57:49;19.30;;;6.80;;
65658;SDS011;60181;53.258;6.932;2022-12-11T09:02:17;18.60;;;6.60;;
65658;SDS011;60181;53.258;6.932;2022-12-11T09:06:45;18.60;;;6.60;;
65658;SDS011;60181;53.258;6.932;2022-12-11T09:11:14;18.60;;;6.60;;
65658;SDS011;60181;53.258;6.932;2022-12-11T09:15:41;16.10;;;6.60;;
65658;SDS011;60181;53.258;6.932;2022-12-11T09:20:09;16.10;;;6.60;;
65658;SDS011;60181;53.258;6.932;2022-12-11T09:24:37;16.20;;;6.30;;
65658;SDS011;60181;53.258;6.932;2022-12-11T09:29:05;16.20;;;6.30;;
65658;SDS011;60181;53.258;6.932;2022-12-11T09:33:33;15.00;;;6.10;;
65658;SDS011;60181;53.258;6.932;2022-12-11T09:38:01;15.00;;;6.10;;
65658;SDS011;60181;53.258;6.932;2022-12-11T09:46:57;15.60;;;6.10;;
65658;SDS011;60181;53.258;6.932;2022-12-11T09:55:54;16.60;;;6.30;;
65658;SDS011;60181;53.258;6.932;2022-12-11T10:04:52;13.70;;;5.50;;
65658;SDS011;60181;53.258;6.932;2022-12-11T10:14:05;13.00;;;5.60;;
65658;SDS011;60181;53.258;6.932;2022-12-11T10:18:13;13.00;;;5.60;;
65658;SDS011;60181;53.258;6.932;2022-12-11T10:22:41;12.40;;;5.50;;
65658;SDS011;60181;53.258;6.932;2022-12-11T10:27:18;12.40;;;5.50;;
65658;SDS011;60181;53.258;6.932;2022-12-11T10:31:39;12.40;;;5.50;;
65658;SDS011;60181;53.258;6.932;2022-12-11T10:36:05;13.50;;;5.20;;
65658;SDS011;60181;53.258;6.932;2022-12-11T10:40:33;13.50;;;5.20;;
65658;SDS011;60181;53.258;6.932;2022-12-11T10:45:01;13.00;;;5.30;;
65658;SDS011;60181;53.258;6.932;2022-12-11T10:49:29;13.00;;;5.30;;
65658;SDS011;60181;53.258;6.932;2022-12-11T10:53:59;13.00;;;5.10;;
65658;SDS011;60181;53.258;6.932;2022-12-11T10:58:25;13.00;;;5.10;;
65658;SDS011;60181;53.258;6.932;2022-12-11T11:02:52;11.10;;;4.80;;
65658;SDS011;60181;53.258;6.932;2022-12-11T11:07:21;11.10;;;4.80;;
65658;SDS011;60181;53.258;6.932;2022-12-11T11:11:49;11.10;;;4.80;;
65658;SDS011;60181;53.258;6.932;2022-12-11T11:16:17;11.20;;;4.80;;
65658;SDS011;60181;53.258;6.932;2022-12-11T11:20:46;11.20;;;4.80;;
65658;SDS011;60181;53.258;6.932;2022-12-11T11:25:31;11.10;;;4.70;;
65658;SDS011;60181;53.258;6.932;2022-12-11T11:29:41;11.10;;;4.70;;
65658;SDS011;60181;53.258;6.932;2022-12-11T11:34:13;11.70;;;4.70;;
65658;SDS011;60181;53.258;6.932;2022-12-11T11:38:40;11.70;;;4.70;;
65658;SDS011;60181;53.258;6.932;2022-12-11T11:43:06;12.30;;;4.60;;
65658;SDS011;60181;53.258;6.932;2022-12-11T11:47:37;12.30;;;4.60;;
65658;SDS011;60181;53.258;6.932;2022-12-11T11:52:11;12.30;;;4.60;;
65658;SDS011;60181;53.258;6.932;2022-12-11T11:56:32;13.70;;;4.90;;
65658;SDS011;60181;53.258;6.932;2022-12-11T12:00:56;13.70;;;4.90;;
65658;SDS011;60181;53.258;6.932;2022-12-11T12:05:31;11.50;;;4.50;;
65658;SDS011;60181;53.258;6.932;2022-12-11T12:14:28;15.90;;;4.20;;
65658;SDS011;60181;53.258;6.932;2022-12-11T12:18:51;15.90;;;4.20;;
65658;SDS011;60181;53.258;6.932;2022-12-11T12:32:27;13.40;;;4.20;;
65658;SDS011;60181;53.258;6.932;2022-12-11T12:41:17;13.40;;;4.20;;
65658;SDS011;60181;53.258;6.932;2022-12-11T12:45:42;12.40;;;4.00;;
65658;SDS011;60181;53.258;6.932;2022-12-11T12:50:09;12.40;;;4.00;;
65658;SDS011;60181;53.258;6.932;2022-12-11T12:54:32;9.80;;;4.10;;
65658;SDS011;60181;53.258;6.932;2022-12-11T12:59:00;9.80;;;4.10;;
65658;SDS011;60181;53.258;6.932;2022-12-11T13:03:31;14.00;;;4.50;;
65658;SDS011;60181;53.258;6.932;2022-12-11T13:07:58;14.00;;;4.50;;
65658;SDS011;60181;53.258;6.932;2022-12-11T13:12:41;10.50;;;4.10;;
65658;SDS011;60181;53.258;6.932;2022-12-11T13:17:03;10.50;;;4.10;;
65658;SDS011;60181;53.258;6.932;2022-12-11T13:21:35;10.50;;;4.10;;
65658;SDS011;60181;53.258;6.932;2022-12-11T13:25:50;10.70;;;4.40;;
65658;SDS011;60181;53.258;6.932;2022-12-11T13:30:21;10.70;;;4.40;;
65658;SDS011;60181;53.258;6.932;2022-12-11T13:34:50;10.70;;;4.40;;
65658;SDS011;60181;53.258;6.932;2022-12-11T13:39:19;10.70;;;4.40;;
65658;SDS011;60181;53.258;6.932;2022-12-11T13:43:40;9.70;;;4.10;;
65658;SDS011;60181;53.258;6.932;2022-12-11T13:48:16;9.70;;;4.10;;
65658;SDS011;60181;53.258;6.932;2022-12-11T13:52:36;11.90;;;4.20;;
65658;SDS011;60181;53.258;6.932;2022-12-11T14:01:32;11.90;;;4.20;;
65658;SDS011;60181;53.258;6.932;2022-12-11T14:06:00;9.90;;;4.10;;
65658;SDS011;60181;53.258;6.932;2022-12-11T14:10:29;9.90;;;4.10;;
65658;SDS011;60181;53.258;6.932;2022-12-11T14:14:56;10.00;;;4.00;;
65658;SDS011;60181;53.258;6.932;2022-12-11T14:19:24;10.00;;;4.00;;
65658;SDS011;60181;53.258;6.932;2022-12-11T14:23:56;9.00;;;4.20;;
65658;SDS011;60181;53.258;6.932;2022-12-11T14:28:20;9.00;;;4.20;;
65658;SDS011;60181;53.258;6.932;2022-12-11T14:32:48;11.40;;;4.70;;
65658;SDS011;60181;53.258;6.932;2022-12-11T14:37:16;11.40;;;4.70;;
65658;SDS011;60181;53.258;6.932;2022-12-11T14:46:16;10.60;;;4.50;;
65658;SDS011;60181;53.258;6.932;2022-12-11T14:50:41;10.60;;;4.50;;
65658;SDS011;60181;53.258;6.932;2022-12-11T14:55:14;9.30;;;4.20;;
65658;SDS011;60181;53.258;6.932;2022-12-11T14:59:38;9.30;;;4.20;;
65658;SDS011;60181;53.258;6.932;2022-12-11T15:08:33;9.50;;;4.10;;
65658;SDS011;60181;53.258;6.932;2022-12-11T15:13:00;11.40;;;4.30;;
65658;SDS011;60181;53.258;6.932;2022-12-11T15:17:28;11.40;;;4.30;;
65658;SDS011;60181;53.258;6.932;2022-12-11T15:22:05;11.40;;;4.30;;
65658;SDS011;60181;53.258;6.932;2022-12-11T15:30:56;9.60;;;4.40;;
65658;SDS011;60181;53.258;6.932;2022-12-11T15:35:24;9.20;;;4.10;;
65658;SDS011;60181;53.258;6.932;2022-12-11T15:39:48;9.20;;;4.10;;
65658;SDS011;60181;53.258;6.932;2022-12-11T15:44:20;12.10;;;4.50;;
65658;SDS011;60181;53.258;6.932;2022-12-11T15:48:44;12.10;;;4.50;;
65658;SDS011;60181;53.258;6.932;2022-12-11T15:53:12;10.30;;;4.30;;
65658;SDS011;60181;53.258;6.932;2022-12-11T15:57:43;10.30;;;4.30;;
65658;SDS011;60181;53.258;6.932;2022-12-11T16:02:10;10.30;;;4.30;;
65658;SDS011;60181;53.258;6.932;2022-12-11T16:06:36;12.30;;;4.60;;
65658;SDS011;60181;53.258;6.932;2022-12-11T16:11:04;12.30;;;4.60;;
65658;SDS011;60181;53.258;6.932;2022-12-11T16:15:32;10.00;;;4.50;;
65658;SDS011;60181;53.258;6.932;2022-12-11T16:20:00;10.00;;;4.50;;
65658;SDS011;60181;53.258;6.932;2022-12-11T16:24:28;11.50;;;4.60;;
65658;SDS011;60181;53.258;6.932;2022-12-11T16:28:56;11.50;;;4.60;;
65658;SDS011;60181;53.258;6.932;2022-12-11T16:33:24;10.30;;;4.70;;
65658;SDS011;60181;53.258;6.932;2022-12-11T16:37:53;10.30;;;4.70;;
65658;SDS011;60181;53.258;6.932;2022-12-11T16:42:20;11.50;;;4.90;;
65658;SDS011;60181;53.258;6.932;2022-12-11T16:46:48;11.50;;;4.90;;
65658;SDS011;60181;53.258;6.932;2022-12-11T16:51:16;11.50;;;4.90;;
65658;SDS011;60181;53.258;6.932;2022-12-11T16:55:44;12.80;;;5.20;;
65658;SDS011;60181;53.258;6.932;2022-12-11T17:00:12;12.80;;;5.20;;
65658;SDS011;60181;53.258;6.932;2022-12-11T17:04:40;12.70;;;4.90;;
65658;SDS011;60181;53.258;6.932;2022-12-11T17:09:08;12.70;;;4.90;;
65658;SDS011;60181;53.258;6.932;2022-12-11T17:13:36;11.00;;;5.00;;
65658;SDS011;60181;53.258;6.932;2022-12-11T17:18:04;11.00;;;5.00;;
65658;SDS011;60181;53.258;6.932;2022-12-11T17:22:32;11.40;;;4.70;;
65658;SDS011;60181;53.258;6.932;2022-12-11T17:27:00;11.40;;;4.70;;
65658;SDS011;60181;53.258;6.932;2022-12-11T17:31:28;11.40;;;4.70;;
65658;SDS011;60181;53.258;6.932;2022-12-11T17:35:59;13.40;;;5.20;;
65658;SDS011;60181;53.258;6.932;2022-12-11T17:40:24;13.40;;;5.20;;
65658;SDS011;60181;53.258;6.932;2022-12-11T17:44:52;12.30;;;5.00;;
65658;SDS011;60181;53.258;6.932;2022-12-11T17:49:20;12.30;;;5.00;;
65658;SDS011;60181;53.258;6.932;2022-12-11T17:53:48;11.80;;;4.70;;
65658;SDS011;60181;53.258;6.932;2022-12-11T17:58:19;11.80;;;4.70;;
65658;SDS011;60181;53.258;6.932;2022-12-11T18:02:44;10.80;;;5.10;;
65658;SDS011;60181;53.258;6.932;2022-12-11T18:07:12;10.80;;;5.10;;
65658;SDS011;60181;53.258;6.932;2022-12-11T18:11:40;10.80;;;5.10;;
65658;SDS011;60181;53.258;6.932;2022-12-11T18:16:15;13.30;;;5.30;;
65658;SDS011;60181;53.258;6.932;2022-12-11T18:20:36;13.30;;;5.30;;
65658;SDS011;60181;53.258;6.932;2022-12-11T18:25:04;13.70;;;5.10;;
65658;SDS011;60181;53.258;6.932;2022-12-11T18:29:32;13.70;;;5.10;;
65658;SDS011;60181;53.258;6.932;2022-12-11T18:34:00;14.10;;;5.40;;
65658;SDS011;60181;53.258;6.932;2022-12-11T18:38:28;14.10;;;5.40;;
65658;SDS011;60181;53.258;6.932;2022-12-11T18:42:56;11.30;;;4.90;;
65658;SDS011;60181;53.258;6.932;2022-12-11T18:47:24;11.30;;;4.90;;
65658;SDS011;60181;53.258;6.932;2022-12-11T18:51:52;11.30;;;4.90;;
65658;SDS011;60181;53.258;6.932;2022-12-11T18:56:20;13.90;;;5.60;;
65658;SDS011;60181;53.258;6.932;2022-12-11T19:00:48;13.90;;;5.60;;
65658;SDS011;60181;53.258;6.932;2022-12-11T19:05:16;12.90;;;5.00;;
65658;SDS011;60181;53.258;6.932;2022-12-11T19:09:44;12.90;;;5.00;;
65658;SDS011;60181;53.258;6.932;2022-12-11T19:14:12;11.50;;;5.10;;
65658;SDS011;60181;53.258;6.932;2022-12-11T19:18:40;11.50;;;5.10;;
65658;SDS011;60181;53.258;6.932;2022-12-11T19:23:08;11.80;;;4.90;;
65658;SDS011;60181;53.258;6.932;2022-12-11T19:27:36;11.80;;;4.90;;
65658;SDS011;60181;53.258;6.932;2022-12-11T19:32:04;11.80;;;4.90;;
65658;SDS011;60181;53.258;6.932;2022-12-11T19:36:32;12.50;;;5.10;;
65658;SDS011;60181;53.258;6.932;2022-12-11T19:41:03;12.50;;;5.10;;
65658;SDS011;60181;53.258;6.932;2022-12-11T19:45:28;10.80;;;5.20;;
65658;SDS011;60181;53.258;6.932;2022-12-11T19:49:56;10.80;;;5.20;;
65658;SDS011;60181;53.258;6.932;2022-12-11T19:54:24;11.80;;;5.20;;
65658;SDS011;60181;53.258;6.932;2022-12-11T19:58:52;11.80;;;5.20;;
65658;SDS011;60181;53.258;6.932;2022-12-11T20:03:20;12.80;;;5.60;;
65658;SDS011;60181;53.258;6.932;2022-12-11T20:07:48;12.80;;;5.60;;
65658;SDS011;60181;53.258;6.932;2022-12-11T20:12:16;12.00;;;5.30;;
65658;SDS011;60181;53.258;6.932;2022-12-11T20:16:44;12.00;;;5.30;;
65658;SDS011;60181;53.258;6.932;2022-12-11T20:21:13;12.00;;;5.30;;
65658;SDS011;60181;53.258;6.932;2022-12-11T20:25:40;11.40;;;5.10;;
65658;SDS011;60181;53.258;6.932;2022-12-11T20:30:08;11.40;;;5.10;;
65658;SDS011;60181;53.258;6.932;2022-12-11T20:34:36;11.50;;;5.40;;
65658;SDS011;60181;53.258;6.932;2022-12-11T20:39:04;11.50;;;5.40;;
65658;SDS011;60181;53.258;6.932;2022-12-11T20:43:32;11.30;;;5.40;;
65658;SDS011;60181;53.258;6.932;2022-12-11T20:48:00;11.30;;;5.40;;
65658;SDS011;60181;53.258;6.932;2022-12-11T20:52:28;11.10;;;5.30;;
65658;SDS011;60181;53.258;6.932;2022-12-11T20:56:56;11.10;;;5.30;;
65658;SDS011;60181;53.258;6.932;2022-12-11T21:01:25;11.10;;;5.30;;
65658;SDS011;60181;53.258;6.932;2022-12-11T21:05:52;11.00;;;4.90;;
65658;SDS011;60181;53.258;6.932;2022-12-11T21:10:20;11.00;;;4.90;;
65658;SDS011;60181;53.258;6.932;2022-12-11T21:14:48;13.80;;;5.50;;
65658;SDS011;60181;53.258;6.932;2022-12-11T21:19:16;13.80;;;5.50;;
65658;SDS011;60181;53.258;6.932;2022-12-11T21:23:44;14.10;;;5.30;;
65658;SDS011;60181;53.258;6.932;2022-12-11T21:28:12;14.10;;;5.30;;
65658;SDS011;60181;53.258;6.932;2022-12-11T21:32:40;11.90;;;5.60;;
65658;SDS011;60181;53.258;6.932;2022-12-11T21:37:08;11.90;;;5.60;;
65658;SDS011;60181;53.258;6.932;2022-12-11T21:41:36;11.90;;;5.60;;
65658;SDS011;60181;53.258;6.932;2022-12-11T21:46:04;13.40;;;5.80;;
65658;SDS011;60181;53.258;6.932;2022-12-11T21:50:32;13.40;;;5.80;;
65658;SDS011;60181;53.258;6.932;2022-12-11T21:55:00;12.90;;;6.10;;
65658;SDS011;60181;53.258;6.932;2022-12-11T21:59:28;12.90;;;6.10;;
65658;SDS011;60181;53.258;6.932;2022-12-11T22:03:56;13.50;;;6.20;;
65658;SDS011;60181;53.258;6.932;2022-12-11T22:08:24;13.50;;;6.20;;
65658;SDS011;60181;53.258;6.932;2022-12-11T22:12:51;14.20;;;6.30;;
65658;SDS011;60181;53.258;6.932;2022-12-11T22:17:19;14.20;;;6.30;;
65658;SDS011;60181;53.258;6.932;2022-12-11T22:21:47;14.20;;;6.30;;
65658;SDS011;60181;53.258;6.932;2022-12-11T22:26:19;15.30;;;6.30;;
65658;SDS011;60181;53.258;6.932;2022-12-11T22:30:44;15.30;;;6.30;;
65658;SDS011;60181;53.258;6.932;2022-12-11T22:35:11;15.00;;;6.80;;
65658;SDS011;60181;53.258;6.932;2022-12-11T22:39:39;15.00;;;6.80;;
65658;SDS011;60181;53.258;6.932;2022-12-11T22:44:15;15.90;;;6.40;;
65658;SDS011;60181;53.258;6.932;2022-12-11T22:48:35;15.90;;;6.40;;
65658;SDS011;60181;53.258;6.932;2022-12-11T22:53:04;16.20;;;7.00;;
65658;SDS011;60181;53.258;6.932;2022-12-11T22:57:34;16.20;;;7.00;;
65658;SDS011;60181;53.258;6.932;2022-12-11T23:01:59;16.20;;;7.00;;
65658;SDS011;60181;53.258;6.932;2022-12-11T23:06:27;14.60;;;6.60;;
65658;SDS011;60181;53.258;6.932;2022-12-11T23:10:55;14.60;;;6.60;;
65658;SDS011;60181;53.258;6.932;2022-12-11T23:15:23;15.90;;;7.00;;
65658;SDS011;60181;53.258;6.932;2022-12-11T23:19:51;15.90;;;7.00;;
65658;SDS011;60181;53.258;6.932;2022-12-11T23:24:19;15.80;;;7.00;;
65658;SDS011;60181;53.258;6.932;2022-12-11T23:28:48;15.80;;;7.00;;
65658;SDS011;60181;53.258;6.932;2022-12-11T23:33:15;14.80;;;6.60;;
65658;SDS011;60181;53.258;6.932;2022-12-11T23:37:43;14.80;;;6.60;;
65658;SDS011;60181;53.258;6.932;2022-12-11T23:42:11;14.80;;;6.60;;
65658;SDS011;60181;53.258;6.932;2022-12-11T23:46:39;16.40;;;6.80;;
65658;SDS011;60181;53.258;6.932;2022-12-11T23:51:08;16.40;;;6.80;;
65658;SDS011;60181;53.258;6.932;2022-12-11T23:55:39;14.60;;;6.60;;
